Time;durP1;ratioP1;P1;durP2;ratioP2;P2;SDS_P1;SDS_P2;PMS_P1;PMS_P2;Temp;Humidity;BMP_temperature;BMP_pressure;BME280_temperature;BME280_humidity;BME280_pressure;Samples;Min_cycle;Max_cycle;Signal;HPM_P1;HPM_P2
2023/12/12 00:01:02;;;;;;;18.23;3.40;;;11.00;74.90;;;;;;4893599;29;20545;-77
2023/12/12 00:03:30;;;;;;;26.97;5.03;;;11.00;74.90;;;;;;4889558;29;20459;-76
2023/12/12 00:06:01;;;;;;;19.23;3.63;;;11.00;75.00;;;;;;4906091;29;20485;-76
2023/12/12 00:08:30;;;;;;;16.30;3.37;;;11.00;75.00;;;;;;4890495;29;21046;-76
2023/12/12 00:10:58;;;;;;;14.70;3.50;;;11.00;75.10;;;;;;4892421;29;20457;-76
2023/12/12 00:13:26;;;;;;;13.87;3.50;;;11.00;75.10;;;;;;4906980;29;20465;-76
2023/12/12 00:15:54;;;;;;;17.27;3.90;;;11.00;75.10;;;;;;4896882;29;20632;-76
2023/12/12 00:18:22;;;;;;;20.13;4.00;;;11.00;75.10;;;;;;4894491;29;20934;-76
2023/12/12 00:20:51;;;;;;;15.90;3.37;;;11.00;75.20;;;;;;4899701;29;20474;-76
2023/12/12 00:23:19;;;;;;;16.80;4.70;;;11.00;75.20;;;;;;4896464;29;20470;-76
2023/12/12 00:25:48;;;;;;;16.67;4.40;;;11.00;75.20;;;;;;4899403;29;20468;-76
2023/12/12 00:28:17;;;;;;;15.23;3.87;;;11.00;75.20;;;;;;4894711;29;20499;-76
2023/12/12 00:30:45;;;;;;;21.87;5.60;;;11.00;75.20;;;;;;4895500;29;20477;-76
2023/12/12 00:33:13;;;;;;;21.00;4.00;;;11.00;75.30;;;;;;4893611;29;20473;-77
2023/12/12 00:35:41;;;;;;;16.90;3.63;;;10.90;75.30;;;;;;4895846;29;20548;-77
2023/12/12 00:38:09;;;;;;;16.47;3.80;;;10.90;75.30;;;;;;4895116;29;20463;-76
2023/12/12 00:40:37;;;;;;;14.97;4.07;;;10.90;75.40;;;;;;4894111;29;20457;-77
2023/12/12 00:43:06;;;;;;;18.30;3.80;;;11.00;75.30;;;;;;4891788;29;20457;-75
2023/12/12 00:45:34;;;;;;;15.63;3.53;;;10.90;75.30;;;;;;4893267;29;20859;-75
2023/12/12 00:48:03;;;;;;;19.70;4.33;;;10.90;75.30;;;;;;4895340;29;20989;-75
2023/12/12 00:50:32;;;;;;;22.23;4.33;;;10.90;75.30;;;;;;4888224;29;21183;-75
2023/12/12 00:53:00;;;;;;;16.93;3.40;;;10.90;75.30;;;;;;4894732;29;20476;-75
2023/12/12 00:55:28;;;;;;;12.97;4.00;;;10.90;75.40;;;;;;4892659;29;20485;-75
2023/12/12 00:57:56;;;;;;;21.50;4.13;;;10.90;75.40;;;;;;4896191;29;20512;-75
2023/12/12 01:00:26;;;;;;;19.07;4.20;;;10.90;75.40;;;;;;4907321;29;20545;-75
2023/12/12 01:02:54;;;;;;;15.87;3.60;;;10.90;75.40;;;;;;4893238;29;20560;-75
2023/12/12 01:05:22;;;;;;;17.77;4.00;;;10.90;75.40;;;;;;4893073;29;20922;-75
2023/12/12 01:07:50;;;;;;;24.03;4.47;;;10.90;75.50;;;;;;4892285;29;20481;-75
2023/12/12 01:10:18;;;;;;;15.53;4.47;;;10.90;75.50;;;;;;4894893;29;20473;-77
2023/12/12 01:12:46;;;;;;;22.57;5.00;;;10.90;75.50;;;;;;4893916;29;20585;-77
2023/12/12 01:15:14;;;;;;;16.20;3.60;;;10.80;75.60;;;;;;4896152;29;20461;-77
2023/12/12 01:17:43;;;;;;;17.13;4.27;;;10.80;75.80;;;;;;4892574;29;20455;-76
2023/12/12 01:20:12;;;;;;;16.53;4.30;;;10.80;75.80;;;;;;4893178;29;20477;-76
2023/12/12 01:22:40;;;;;;;17.83;4.43;;;10.80;75.90;;;;;;4894992;29;20461;-76
2023/12/12 01:25:08;;;;;;;24.07;5.37;;;10.80;76.00;;;;;;4893339;29;20790;-76
2023/12/12 01:27:36;;;;;;;26.77;5.13;;;10.80;75.90;;;;;;4891805;29;20550;-76
2023/12/12 01:30:05;;;;;;;20.10;5.33;;;10.80;76.00;;;;;;4893731;29;20466;-76
2023/12/12 01:32:33;;;;;;;18.90;4.47;;;10.80;76.10;;;;;;4891419;29;20484;-76
2023/12/12 01:35:03;;;;;;;16.67;4.20;;;10.80;76.10;;;;;;4893285;29;20532;-76
2023/12/12 01:37:31;;;;;;;19.33;4.53;;;10.80;76.10;;;;;;4892649;29;20454;-77
2023/12/12 01:39:59;;;;;;;23.33;5.00;;;10.80;76.10;;;;;;4888605;29;20469;-76
2023/12/12 01:42:27;;;;;;;24.40;5.43;;;10.90;76.20;;;;;;4893988;29;20470;-76
2023/12/12 01:44:55;;;;;;;33.40;6.07;;;10.90;76.20;;;;;;4894365;29;20488;-75
2023/12/12 01:47:23;;;;;;;15.47;3.87;;;10.80;76.20;;;;;;4894862;29;20942;-75
2023/12/12 01:49:51;;;;;;;20.70;4.60;;;10.90;76.30;;;;;;4894154;29;20561;-76
2023/12/12 01:52:21;;;;;;;19.37;4.37;;;10.90;76.30;;;;;;4892548;29;20548;-76
2023/12/12 01:54:50;;;;;;;22.80;5.07;;;10.90;76.40;;;;;;4893109;29;20572;-75
2023/12/12 01:57:21;;;;;;;23.23;4.43;;;10.90;76.40;;;;;;4893615;29;20543;-75
2023/12/12 01:59:49;;;;;;;20.77;5.10;;;10.90;76.40;;;;;;4901920;29;20485;-75
2023/12/12 02:02:18;;;;;;;23.23;4.60;;;10.90;76.40;;;;;;4892144;29;20521;-75
2023/12/12 02:04:47;;;;;;;14.63;4.47;;;10.90;76.50;;;;;;4908199;29;20512;-75
2023/12/12 02:07:16;;;;;;;15.27;4.10;;;10.90;76.50;;;;;;4894994;29;20564;-75
2023/12/12 02:09:46;;;;;;;21.23;5.17;;;10.90;76.50;;;;;;4893519;29;20497;-75
2023/12/12 02:12:14;;;;;;;20.27;4.40;;;11.00;76.50;;;;;;4893192;29;20464;-75
2023/12/12 02:14:43;;;;;;;21.77;4.13;;;11.00;76.50;;;;;;4892781;29;20897;-75
2023/12/12 02:17:11;;;;;;;18.97;4.17;;;11.00;76.50;;;;;;4892698;29;20532;-75
2023/12/12 02:19:39;;;;;;;24.70;5.20;;;11.00;76.40;;;;;;4892407;29;20539;-75
2023/12/12 02:22:09;;;;;;;17.50;4.37;;;11.00;76.50;;;;;;4893800;29;20473;-75
2023/12/12 02:24:37;;;;;;;19.23;5.50;;;11.00;76.50;;;;;;4892310;29;20771;-75
2023/12/12 02:27:05;;;;;;;22.47;4.40;;;10.90;76.50;;;;;;4895157;29;20466;-75
2023/12/12 02:29:33;;;;;;;17.03;4.43;;;10.90;76.50;;;;;;4892413;29;20494;-75
2023/12/12 02:32:01;;;;;;;20.50;4.90;;;10.90;76.50;;;;;;4892043;29;20525;-75
2023/12/12 02:34:29;;;;;;;23.33;4.83;;;10.90;76.50;;;;;;4891995;29;20472;-75
2023/12/12 02:36:57;;;;;;;23.53;5.03;;;10.90;76.50;;;;;;4893654;29;20957;-75
2023/12/12 02:39:26;;;;;;;24.07;4.00;;;10.80;76.50;;;;;;4887594;29;20458;-75
2023/12/12 02:41:54;;;;;;;17.60;4.17;;;10.80;76.60;;;;;;4893379;29;20471;-75
2023/12/12 02:44:22;;;;;;;20.63;4.67;;;10.80;76.60;;;;;;4892827;29;20501;-75
2023/12/12 02:46:50;;;;;;;17.30;4.20;;;10.70;76.70;;;;;;4888050;29;20555;-75
2023/12/12 02:49:18;;;;;;;19.43;4.63;;;10.70;76.70;;;;;;4892128;29;20481;-75
2023/12/12 02:51:46;;;;;;;20.77;4.70;;;10.60;76.70;;;;;;4891629;29;20808;-75
2023/12/12 02:54:15;;;;;;;16.17;3.80;;;10.60;76.80;;;;;;4893804;29;20458;-75
2023/12/12 02:56:44;;;;;;;18.30;4.37;;;10.60;76.70;;;;;;4906347;29;20796;-75
2023/12/12 02:59:12;;;;;;;21.73;4.70;;;10.50;76.70;;;;;;4893235;29;20457;-75
2023/12/12 03:01:40;;;;;;;19.57;4.37;;;10.50;76.80;;;;;;4890551;29;20487;-75
2023/12/12 03:04:08;;;;;;;23.37;4.80;;;10.50;76.90;;;;;;4891819;29;20539;-75
2023/12/12 03:06:36;;;;;;;16.53;4.83;;;10.50;76.90;;;;;;4905912;29;20549;-75
2023/12/12 03:09:04;;;;;;;20.83;4.60;;;10.50;76.90;;;;;;4891362;29;20497;-75
2023/12/12 03:11:34;;;;;;;25.17;5.20;;;10.50;76.90;;;;;;4892504;29;20469;-75
2023/12/12 03:14:03;;;;;;;17.57;4.67;;;10.40;77.00;;;;;;4892401;29;20489;-75
2023/12/12 03:16:31;;;;;;;16.93;3.80;;;10.40;77.00;;;;;;4895082;29;20779;-77
2023/12/12 03:18:59;;;;;;;28.40;5.23;;;10.40;77.10;;;;;;4892211;29;20473;-77
2023/12/12 03:21:28;;;;;;;16.63;4.47;;;10.50;77.10;;;;;;4891688;29;20928;-76
2023/12/12 03:23:57;;;;;;;16.80;4.57;;;10.40;77.10;;;;;;4907111;29;20472;-76
2023/12/12 03:26:25;;;;;;;21.67;4.60;;;10.40;77.10;;;;;;4891998;29;20489;-76
2023/12/12 03:28:54;;;;;;;18.07;4.37;;;10.40;77.10;;;;;;4897206;29;20493;-78
2023/12/12 03:31:23;;;;;;;22.63;4.37;;;10.40;77.10;;;;;;4893767;29;20565;-77
2023/12/12 03:33:51;;;;;;;15.77;4.23;;;10.40;77.20;;;;;;4888789;29;20534;-76
2023/12/12 03:36:19;;;;;;;18.20;3.93;;;10.40;77.30;;;;;;4893146;29;20466;-76
2023/12/12 03:38:48;;;;;;;20.17;5.40;;;10.40;77.30;;;;;;4890355;29;20454;-76
2023/12/12 03:41:16;;;;;;;21.67;4.27;;;10.40;77.40;;;;;;4894476;29;20466;-76
2023/12/12 03:43:44;;;;;;;13.73;3.73;;;10.40;77.40;;;;;;4891119;29;20472;-77
2023/12/12 03:46:13;;;;;;;20.73;4.83;;;10.40;77.40;;;;;;4904008;29;20601;-76
2023/12/12 03:48:42;;;;;;;17.87;4.73;;;10.50;77.40;;;;;;4891830;29;21002;-76
2023/12/12 03:51:11;;;;;;;22.87;4.20;;;10.50;77.40;;;;;;4893142;29;20455;-77
2023/12/12 03:53:40;;;;;;;19.13;4.37;;;10.50;77.40;;;;;;4892707;29;20468;-77
2023/12/12 03:56:08;;;;;;;16.63;4.93;;;10.50;77.40;;;;;;4892434;29;20470;-77
2023/12/12 03:58:37;;;;;;;21.27;4.73;;;10.50;77.40;;;;;;4890943;29;20472;-77
2023/12/12 04:01:06;;;;;;;19.03;5.20;;;10.50;77.40;;;;;;4888032;29;21079;-77
2023/12/12 04:03:34;;;;;;;21.20;5.37;;;10.50;77.50;;;;;;4889777;29;20471;-77
2023/12/12 04:06:05;;;;;;;17.77;4.70;;;10.50;77.50;;;;;;4891778;29;20446;-76
2023/12/12 04:08:34;;;;;;;13.83;3.80;;;10.50;77.60;;;;;;4896062;29;20474;-76
2023/12/12 04:11:01;;;;;;;16.03;4.27;;;10.40;77.60;;;;;;4893088;29;20473;-76
2023/12/12 04:13:30;;;;;;;23.13;4.87;;;10.40;77.60;;;;;;4891891;29;20465;-76
2023/12/12 04:15:58;;;;;;;20.60;4.70;;;10.40;77.70;;;;;;4892091;29;20819;-76
2023/12/12 04:18:26;;;;;;;23.63;5.03;;;10.40;77.70;;;;;;4895611;29;20910;-76
2023/12/12 04:20:55;;;;;;;24.27;5.00;;;10.40;77.70;;;;;;4891473;29;20493;-76
2023/12/12 04:23:24;;;;;;;24.73;4.33;;;10.40;77.70;;;;;;4889580;29;20510;-76
2023/12/12 04:25:52;;;;;;;12.83;4.50;;;10.40;77.80;;;;;;4890729;29;20943;-76
2023/12/12 04:28:20;;;;;;;20.40;4.77;;;10.40;77.80;;;;;;4892958;29;20473;-76
2023/12/12 04:30:48;;;;;;;23.47;4.50;;;10.50;77.80;;;;;;4888574;29;20995;-76
2023/12/12 04:33:16;;;;;;;17.60;4.63;;;10.40;77.90;;;;;;4901702;29;20468;-76
2023/12/12 04:35:45;;;;;;;22.60;4.73;;;10.50;77.80;;;;;;4889776;29;20545;-76
2023/12/12 04:38:12;;;;;;;14.30;4.20;;;10.50;77.80;;;;;;4892950;29;20458;-76
2023/12/12 04:40:42;;;;;;;22.00;4.90;;;10.40;77.70;;;;;;4891115;29;20473;-76
2023/12/12 04:43:10;;;;;;;19.03;4.70;;;10.40;77.60;;;;;;4892906;29;20457;-76
2023/12/12 04:45:40;;;;;;;18.90;4.43;;;10.30;77.70;;;;;;4886219;29;20449;-76
2023/12/12 04:48:08;;;;;;;19.93;4.00;;;10.30;77.80;;;;;;4892629;29;20484;-76
2023/12/12 04:50:36;;;;;;;23.37;5.90;;;10.30;77.80;;;;;;4898383;29;20486;-76
2023/12/12 04:53:04;;;;;;;19.33;4.43;;;10.20;77.80;;;;;;4890941;29;20556;-76
2023/12/12 04:55:32;;;;;;;17.90;5.73;;;10.20;77.70;;;;;;4906175;29;20460;-76
2023/12/12 04:58:02;;;;;;;21.50;5.30;;;10.10;77.70;;;;;;4894898;29;20489;-76
2023/12/12 05:00:30;;;;;;;16.80;5.37;;;10.10;77.70;;;;;;4894520;29;20477;-76
2023/12/12 05:02:58;;;;;;;33.87;10.10;;;10.10;77.70;;;;;;4895880;29;20929;-75
2023/12/12 05:05:26;;;;;;;25.30;7.30;;;10.00;77.70;;;;;;4890943;29;20473;-76
2023/12/12 05:07:55;;;;;;;21.57;6.30;;;10.00;77.70;;;;;;4893252;29;20472;-75
2023/12/12 05:10:24;;;;;;;21.33;6.13;;;9.90;77.70;;;;;;4894836;29;21030;-75
2023/12/12 05:12:51;;;;;;;20.60;5.47;;;9.80;77.70;;;;;;4908973;29;20453;-75
2023/12/12 05:15:21;;;;;;;20.27;6.43;;;9.80;77.70;;;;;;4888589;29;21011;-76
2023/12/12 05:17:49;;;;;;;15.57;5.27;;;9.70;77.80;;;;;;4893659;29;20469;-76
2023/12/12 05:20:17;;;;;;;19.77;5.10;;;9.60;77.80;;;;;;4895786;29;20918;-75
2023/12/12 05:22:46;;;;;;;14.10;5.40;;;9.60;77.90;;;;;;4909907;29;20585;-76
2023/12/12 05:25:14;;;;;;;21.80;5.47;;;9.50;77.70;;;;;;4893546;29;20820;-76
2023/12/12 05:27:42;;;;;;;19.97;4.97;;;9.40;77.50;;;;;;4893346;29;20545;-76
2023/12/12 05:30:12;;;;;;;20.60;4.70;;;9.30;77.70;;;;;;4890377;29;21221;-76
2023/12/12 05:32:41;;;;;;;18.03;6.10;;;9.20;78.00;;;;;;4895396;29;20462;-76
2023/12/12 05:35:10;;;;;;;22.03;6.20;;;9.20;78.20;;;;;;4894862;29;20469;-76
2023/12/12 05:37:39;;;;;;;20.20;5.70;;;9.20;78.30;;;;;;4893444;29;20467;-76
2023/12/12 05:40:08;;;;;;;19.73;6.20;;;9.20;78.20;;;;;;4896862;29;20458;-76
2023/12/12 05:42:36;;;;;;;18.27;6.20;;;9.20;78.20;;;;;;4893557;29;20474;-76
2023/12/12 05:45:07;;;;;;;17.50;6.03;;;9.20;78.10;;;;;;4891893;29;20993;-76
2023/12/12 05:47:35;;;;;;;30.53;10.43;;;9.20;78.20;;;;;;4891957;29;20469;-76
2023/12/12 05:50:05;;;;;;;23.63;7.90;;;9.20;78.20;;;;;;4894237;29;20553;-76
2023/12/12 05:52:34;;;;;;;24.80;8.50;;;9.20;78.10;;;;;;4894900;29;20458;-75
2023/12/12 05:55:02;;;;;;;25.43;10.70;;;9.10;78.10;;;;;;4891091;29;20462;-76
2023/12/12 05:57:30;;;;;;;43.80;21.70;;;9.00;78.00;;;;;;4897569;29;20979;-75
2023/12/12 05:59:58;;;;;;;63.23;32.07;;;9.00;78.10;;;;;;4893397;29;20992;-76
2023/12/12 06:02:26;;;;;;;52.30;25.97;;;9.00;78.10;;;;;;4892397;29;20494;-76
2023/12/12 06:04:54;;;;;;;34.40;18.20;;;8.90;78.10;;;;;;4894005;29;20463;-76
2023/12/12 06:07:24;;;;;;;23.87;10.53;;;8.90;78.20;;;;;;4895900;29;20553;-76
2023/12/12 06:09:53;;;;;;;27.93;14.97;;;8.90;78.20;;;;;;4889150;29;20553;-76
2023/12/12 06:12:21;;;;;;;34.33;19.53;;;8.80;78.20;;;;;;4891916;29;20552;-75
2023/12/12 06:14:49;;;;;;;33.53;23.60;;;8.70;78.10;;;;;;4892290;29;20481;-76
2023/12/12 06:17:17;;;;;;;42.97;22.33;;;8.70;78.20;;;;;;4891246;29;20466;-75
2023/12/12 06:19:45;;;;;;;26.10;12.37;;;8.70;78.20;;;;;;4893606;29;20793;-75
2023/12/12 06:22:13;;;;;;;25.53;10.60;;;8.70;78.30;;;;;;4893812;29;20569;-75
2023/12/12 06:24:43;;;;;;;22.87;9.93;;;8.70;78.50;;;;;;4907408;29;20478;-76
2023/12/12 06:27:12;;;;;;;26.03;10.60;;;8.70;78.50;;;;;;4905472;29;20475;-76
2023/12/12 06:29:40;;;;;;;27.17;14.43;;;8.70;78.50;;;;;;4893080;29;20469;-75
2023/12/12 06:32:09;;;;;;;28.53;11.87;;;8.70;78.60;;;;;;4890965;29;20481;-75
2023/12/12 06:34:37;;;;;;;30.47;13.03;;;8.60;78.60;;;;;;4888855;29;20939;-76
2023/12/12 06:37:05;;;;;;;31.07;12.53;;;8.60;78.60;;;;;;4888881;29;20463;-75
2023/12/12 06:39:34;;;;;;;36.53;14.50;;;8.60;78.70;;;;;;4895308;29;20473;-76
2023/12/12 06:42:03;;;;;;;33.53;12.53;;;8.60;79.00;;;;;;4888480;29;20470;-76
2023/12/12 06:44:32;;;;;;;28.80;10.50;;;8.60;79.00;;;;;;4888076;29;20477;-76
2023/12/12 06:47:00;;;;;;;34.20;12.60;;;8.60;79.00;;;;;;4890743;29;20495;-76
2023/12/12 06:49:28;;;;;;;32.57;11.13;;;8.50;79.10;;;;;;4891029;29;20779;-76
2023/12/12 06:51:56;;;;;;;35.10;14.70;;;8.50;79.20;;;;;;4893214;29;20485;-76
2023/12/12 06:54:24;;;;;;;33.43;15.20;;;8.60;79.40;;;;;;4897170;29;20451;-76
2023/12/12 06:56:52;;;;;;;35.30;16.10;;;8.60;79.40;;;;;;4907596;29;20472;-75
2023/12/12 06:59:21;;;;;;;41.10;13.97;;;8.60;79.30;;;;;;4906569;29;20462;-75
2023/12/12 07:01:51;;;;;;;32.10;14.73;;;8.50;79.30;;;;;;4890653;29;20994;-75
2023/12/12 07:04:19;;;;;;;45.23;19.50;;;8.50;79.40;;;;;;4892100;29;20953;-75
2023/12/12 07:06:47;;;;;;;49.60;22.20;;;8.50;79.60;;;;;;4889028;29;20943;-75
2023/12/12 07:09:15;;;;;;;79.03;29.20;;;8.40;79.70;;;;;;4892171;29;20519;-75
2023/12/12 07:11:44;;;;;;;70.53;33.23;;;8.50;79.90;;;;;;4892258;29;20497;-75
2023/12/12 07:14:12;;;;;;;114.77;49.83;;;8.50;80.00;;;;;;4893652;29;20500;-75
2023/12/12 07:16:41;;;;;;;87.33;42.97;;;8.50;80.10;;;;;;4891912;29;20466;-75
2023/12/12 07:19:09;;;;;;;85.93;40.20;;;8.50;80.20;;;;;;4893272;29;20461;-75
2023/12/12 07:21:41;;;;;;;51.35;26.45;;;8.60;80.30;;;;;;4891228;29;20454;-75
2023/12/12 07:24:10;;;;;;;39.23;16.43;;;8.60;80.40;;;;;;4890715;29;20308;-75
2023/12/12 07:26:38;;;;;;;41.20;17.13;;;8.60;80.50;;;;;;4890143;29;20569;-75
2023/12/12 07:29:06;;;;;;;34.40;11.73;;;8.60;80.60;;;;;;4890034;29;20482;-76
2023/12/12 07:31:34;;;;;;;33.43;14.33;;;8.70;80.70;;;;;;4886935;29;20501;-75
2023/12/12 07:34:05;;;;;;;45.40;15.37;;;8.70;80.80;;;;;;4891391;29;20458;-76
2023/12/12 07:36:34;;;;;;;28.47;10.67;;;8.70;80.90;;;;;;4884558;29;20458;-76
2023/12/12 07:39:02;;;;;;;23.67;9.47;;;8.70;81.00;;;;;;4886334;29;20491;-76
2023/12/12 07:41:32;;;;;;;29.80;11.67;;;8.70;81.00;;;;;;4893762;29;20517;-75
2023/12/12 07:44:00;;;;;;;25.47;11.40;;;8.80;81.10;;;;;;4889473;29;20469;-75
2023/12/12 07:46:28;;;;;;;32.43;12.33;;;8.80;81.20;;;;;;4892676;29;20485;-76
2023/12/12 07:48:56;;;;;;;29.43;10.30;;;8.90;81.20;;;;;;4892158;29;20492;-75
2023/12/12 07:51:26;;;;;;;27.47;9.97;;;9.00;81.10;;;;;;4891679;29;20565;-75
2023/12/12 07:53:54;;;;;;;19.83;9.13;;;9.00;81.00;;;;;;4906298;29;20474;-76
2023/12/12 07:56:22;;;;;;;20.50;9.10;;;9.00;81.00;;;;;;4894252;29;20446;-75
2023/12/12 07:58:49;;;;;;;22.30;8.60;;;9.00;80.80;;;;;;4891240;29;20472;-75
2023/12/12 08:01:18;;;;;;;29.33;11.30;;;9.00;80.70;;;;;;4891746;29;20472;-75
2023/12/12 08:03:46;;;;;;;34.23;18.13;;;9.00;80.70;;;;;;4892952;29;20951;-75
2023/12/12 08:06:13;;;;;;;41.47;20.70;;;9.00;80.60;;;;;;4891898;29;20554;-76
2023/12/12 08:08:45;;;;;;;25.80;13.57;;;8.90;80.50;;;;;;4891630;29;20462;-75
2023/12/12 08:11:13;;;;;;;26.00;11.07;;;8.90;80.60;;;;;;4887284;29;20504;-76
2023/12/12 08:13:42;;;;;;;23.47;10.17;;;8.90;80.70;;;;;;4891112;29;20463;-76
2023/12/12 08:16:10;;;;;;;26.47;10.80;;;8.90;80.80;;;;;;4888823;29;20527;-76
2023/12/12 08:18:39;;;;;;;29.23;11.53;;;8.90;80.80;;;;;;4887924;29;20462;-76
2023/12/12 08:21:09;;;;;;;26.23;9.90;;;8.90;80.80;;;;;;4891538;29;20455;-76
2023/12/12 08:23:41;;;;;;;25.97;8.87;;;8.90;80.90;;;;;;4906627;29;20459;-76
2023/12/12 08:26:12;;;;;;;26.90;10.20;;;8.90;81.00;;;;;;4890042;29;20460;-75
2023/12/12 08:28:40;;;;;;;24.30;11.00;;;8.90;81.00;;;;;;4893657;29;20491;-76
2023/12/12 08:31:13;;;;;;;29.20;11.87;;;9.00;81.10;;;;;;4889942;29;20473;-76
2023/12/12 08:33:42;;;;;;;33.87;12.57;;;9.00;81.10;;;;;;4892700;29;20493;-75
2023/12/12 08:36:10;;;;;;;31.07;14.50;;;9.00;81.10;;;;;;4896459;29;20453;-75
2023/12/12 08:38:38;;;;;;;24.97;11.03;;;9.00;81.00;;;;;;4894473;29;20473;-75
2023/12/12 08:41:06;;;;;;;22.70;10.17;;;9.00;81.00;;;;;;4893187;29;20466;-76
2023/12/12 08:43:42;;;;;;;29.50;8.90;;;9.00;81.00;;;;;;4893923;29;20454;-76
2023/12/12 08:46:10;;;;;;;28.47;8.70;;;9.10;81.00;;;;;;4892547;29;20536;-76
2023/12/12 08:48:38;;;;;;;27.07;8.10;;;9.10;81.00;;;;;;4885670;29;20472;-75
2023/12/12 08:51:08;;;;;;;23.60;6.50;;;9.10;81.00;;;;;;4894005;29;21023;-76
2023/12/12 08:53:36;;;;;;;24.80;7.37;;;9.10;81.10;;;;;;4892744;29;21050;-76
2023/12/12 08:56:05;;;;;;;17.20;6.70;;;9.10;81.10;;;;;;4893061;29;20560;-76
2023/12/12 08:58:33;;;;;;;22.90;6.73;;;9.10;81.10;;;;;;4893227;29;20473;-76
2023/12/12 09:01:03;;;;;;;21.50;6.67;;;9.10;81.10;;;;;;4893498;29;20496;-76
2023/12/12 09:03:31;;;;;;;22.00;7.07;;;9.10;81.10;;;;;;4894768;29;20549;-76
2023/12/12 09:05:59;;;;;;;22.00;6.50;;;9.10;81.10;;;;;;4892835;29;21343;-76
2023/12/12 09:08:27;;;;;;;31.00;13.23;;;9.10;81.10;;;;;;4894341;29;20517;-75
2023/12/12 09:10:55;;;;;;;47.53;24.30;;;9.10;81.10;;;;;;4894279;29;20464;-76
2023/12/12 09:13:23;;;;;;;40.33;19.40;;;9.10;81.10;;;;;;4890430;29;20499;-76
2023/12/12 09:15:51;;;;;;;41.20;19.07;;;9.00;81.20;;;;;;4893642;29;20466;-76
2023/12/12 09:18:21;;;;;;;41.00;22.07;;;9.00;81.30;;;;;;4900075;29;20942;-75
2023/12/12 09:20:49;;;;;;;49.27;20.27;;;9.00;81.40;;;;;;4909262;29;20556;-76
2023/12/12 09:23:18;;;;;;;32.33;11.67;;;9.10;81.60;;;;;;4910945;29;20488;-76
2023/12/12 09:25:46;;;;;;;27.90;11.80;;;9.10;81.70;;;;;;4895320;29;20475;-76
2023/12/12 09:28:15;;;;;;;42.13;17.30;;;9.10;81.90;;;;;;4891444;29;20457;-76
2023/12/12 09:30:43;;;;;;;39.23;14.70;;;9.20;82.00;;;;;;4891599;29;20477;-75
2023/12/12 09:33:11;;;;;;;32.93;13.80;;;9.20;82.20;;;;;;4888600;29;20613;-76
2023/12/12 09:35:40;;;;;;;35.40;12.77;;;9.30;82.20;;;;;;4907518;29;20466;-76
2023/12/12 09:38:08;;;;;;;32.63;14.13;;;9.30;82.20;;;;;;4895394;29;20469;-76
2023/12/12 09:40:37;;;;;;;33.33;13.13;;;9.40;82.30;;;;;;4893343;29;20476;-76
2023/12/12 09:43:05;;;;;;;32.63;11.63;;;9.40;82.30;;;;;;4893367;29;20493;-76
2023/12/12 09:45:34;;;;;;;27.10;9.90;;;9.50;82.30;;;;;;4889774;29;20505;-76
2023/12/12 09:48:02;;;;;;;28.40;13.23;;;9.50;82.40;;;;;;4893627;29;20478;-76
2023/12/12 09:50:31;;;;;;;30.93;11.03;;;9.60;82.50;;;;;;4897864;29;20466;-76
2023/12/12 09:53:01;;;;;;;68.83;30.30;;;9.60;82.60;;;;;;4888593;29;20947;-76
2023/12/12 09:55:30;;;;;;;55.30;28.00;;;9.70;82.60;;;;;;4906898;29;21164;-76
2023/12/12 09:57:58;;;;;;;44.80;22.57;;;9.70;82.60;;;;;;4896494;29;20569;-76
2023/12/12 10:00:26;;;;;;;41.67;20.57;;;9.80;82.60;;;;;;4891958;29;20568;-76
2023/12/12 10:02:59;;;;;;;43.27;18.63;;;9.80;82.70;;;;;;4890765;29;20798;-77
2023/12/12 10:05:28;;;;;;;47.10;15.73;;;9.90;82.70;;;;;;4892159;29;20477;-75
2023/12/12 10:07:56;;;;;;;43.57;14.40;;;9.90;82.60;;;;;;4895481;29;21125;-76
2023/12/12 10:10:40;;;;;;;36.60;13.17;;;10.00;82.60;;;;;;4892432;29;20466;-76
2023/12/12 10:13:11;;;;;;;26.13;9.57;;;10.00;82.70;;;;;;4894008;29;20513;-76
2023/12/12 10:15:39;;;;;;;26.93;6.97;;;10.10;82.70;;;;;;4891029;29;20462;-76
2023/12/12 10:18:07;;;;;;;30.73;7.33;;;10.10;82.70;;;;;;4887916;29;20557;-76
2023/12/12 10:20:36;;;;;;;17.60;5.40;;;10.20;82.70;;;;;;4894231;29;20466;-76
2023/12/12 10:23:04;;;;;;;23.10;5.47;;;10.20;82.70;;;;;;4893599;29;20474;-76
2023/12/12 10:25:34;;;;;;;16.63;4.00;;;10.30;82.70;;;;;;4907807;29;20465;-76
2023/12/12 10:28:04;;;;;;;16.87;4.73;;;10.30;82.70;;;;;;4891486;29;20556;-75
2023/12/12 10:30:32;;;;;;;17.87;4.83;;;10.40;82.70;;;;;;4896552;29;20485;-76
2023/12/12 10:33:00;;;;;;;15.87;4.40;;;10.40;82.50;;;;;;4893759;29;20942;-76
2023/12/12 10:35:30;;;;;;;16.07;4.57;;;10.40;82.50;;;;;;4894240;29;21286;-76
2023/12/12 10:38:06;;;;;;;24.30;7.10;;;10.40;82.50;;;;;;4894340;29;20552;-75
2023/12/12 10:40:35;;;;;;;23.70;8.70;;;10.40;82.60;;;;;;4890932;29;20509;-76
2023/12/12 10:43:07;;;;;;;17.30;5.70;;;10.40;82.60;;;;;;4889064;29;20518;-75
2023/12/12 10:45:37;;;;;;;18.10;4.77;;;10.50;82.60;;;;;;4891917;29;20549;-76
2023/12/12 10:48:08;;;;;;;17.53;5.60;;;10.50;82.60;;;;;;4907190;29;20462;-76
2023/12/12 10:50:39;;;;;;;17.03;5.80;;;10.50;82.50;;;;;;4890452;29;20935;-75
2023/12/12 10:53:09;;;;;;;15.10;5.67;;;10.50;82.60;;;;;;4888512;29;20486;-77
2023/12/12 10:55:37;;;;;;;23.57;5.60;;;10.50;82.60;;;;;;4890374;29;21159;-76
2023/12/12 10:58:08;;;;;;;20.03;3.97;;;10.50;82.60;;;;;;4890772;29;20470;-76
2023/12/12 11:00:36;;;;;;;18.57;4.40;;;10.50;82.60;;;;;;4891756;29;20867;-76
2023/12/12 11:03:05;;;;;;;14.70;3.77;;;10.50;82.60;;;;;;4897875;29;20501;-76
2023/12/12 11:05:33;;;;;;;12.77;4.50;;;10.50;82.60;;;;;;4891223;29;20457;-76
2023/12/12 11:08:03;;;;;;;15.53;5.80;;;10.50;82.50;;;;;;4889566;29;20532;-75
2023/12/12 11:10:31;;;;;;;13.07;4.50;;;10.50;82.60;;;;;;4907354;29;20488;-76
2023/12/12 11:13:02;;;;;;;21.80;6.27;;;10.50;82.80;;;;;;4891810;29;20508;-75
2023/12/12 11:15:33;;;;;;;23.77;5.30;;;10.60;82.80;;;;;;4888398;29;20959;-76
2023/12/12 11:18:01;;;;;;;25.37;7.33;;;10.60;82.80;;;;;;4893456;29;20476;-76
2023/12/12 11:20:40;;;;;;;20.40;5.40;;;10.70;82.90;;;;;;4890251;29;20504;-76
2023/12/12 11:23:09;;;;;;;16.37;6.80;;;10.80;82.90;;;;;;4892263;29;20469;-76
2023/12/12 11:25:42;;;;;;;16.77;6.53;;;10.80;82.80;;;;;;4893416;29;20849;-76
2023/12/12 11:28:11;;;;;;;34.90;20.83;;;10.90;82.70;;;;;;4907837;29;20474;-76
2023/12/12 11:30:40;;;;;;;31.80;16.27;;;10.90;82.60;;;;;;4891696;29;20474;-76
2023/12/12 11:33:08;;;;;;;21.43;11.07;;;10.90;82.50;;;;;;4889282;29;20485;-76
2023/12/12 11:35:37;;;;;;;17.10;6.40;;;10.90;82.60;;;;;;4891458;29;20468;-76
2023/12/12 11:38:06;;;;;;;11.40;4.47;;;10.90;82.50;;;;;;4906360;29;20462;-76
2023/12/12 11:40:37;;;;;;;18.20;4.40;;;10.90;82.40;;;;;;4905408;29;20484;-76
2023/12/12 11:43:19;;;;;;;15.73;4.90;;;10.80;82.40;;;;;;4885996;29;20568;-76
2023/12/12 11:45:49;;;;;;;14.60;4.73;;;10.80;82.40;;;;;;4892338;29;20466;-76
2023/12/12 11:48:18;;;;;;;21.67;9.50;;;10.80;82.40;;;;;;4888871;29;20505;-76
2023/12/12 11:50:47;;;;;;;26.23;10.93;;;10.80;82.40;;;;;;4891759;29;21243;-76
2023/12/12 11:53:38;;;;;;;21.30;8.97;;;10.80;82.40;;;;;;4889516;29;20588;-76
2023/12/12 11:56:07;;;;;;;56.27;21.67;;;10.80;82.40;;;;;;4905357;29;20470;-76
2023/12/12 11:58:35;;;;;;;20.47;8.10;;;10.80;82.40;;;;;;4893217;29;20466;-76
2023/12/12 12:01:05;;;;;;;26.20;8.40;;;10.80;82.40;;;;;;4890181;29;20580;-76
2023/12/12 12:03:34;;;;;;;15.07;5.50;;;10.80;82.40;;;;;;4892349;29;20454;-75
2023/12/12 12:06:02;;;;;;;15.83;5.77;;;10.80;82.30;;;;;;4891142;29;20465;-76
2023/12/12 12:08:30;;;;;;;20.07;7.03;;;10.80;82.30;;;;;;4888866;29;20459;-76
2023/12/12 12:10:58;;;;;;;18.30;7.70;;;10.80;82.30;;;;;;4902858;29;20462;-76
2023/12/12 12:13:38;;;;;;;31.40;14.20;;;10.80;82.30;;;;;;4889851;29;21385;-76
2023/12/12 12:16:08;;;;;;;28.37;10.30;;;10.80;82.30;;;;;;4902636;29;20470;-76
2023/12/12 12:18:36;;;;;;;23.60;10.33;;;10.80;82.30;;;;;;4903368;29;20987;-76
2023/12/12 12:21:07;;;;;;;39.33;17.23;;;10.80;82.30;;;;;;4894072;29;20468;-76
2023/12/12 12:23:37;;;;;;;27.03;12.73;;;10.80;82.30;;;;;;4892936;29;20464;-76
2023/12/12 12:26:05;;;;;;;23.43;9.83;;;10.80;82.30;;;;;;4886844;29;20457;-76
2023/12/12 12:28:34;;;;;;;24.00;10.63;;;10.80;82.30;;;;;;4890725;29;20462;-76
2023/12/12 12:31:04;;;;;;;18.93;8.20;;;10.80;82.30;;;;;;4889419;29;20489;-76
2023/12/12 12:33:35;;;;;;;26.43;7.57;;;10.80;82.30;;;;;;4892805;29;20474;-75
2023/12/12 12:36:03;;;;;;;21.27;8.80;;;10.80;82.30;;;;;;4894123;29;20572;-75
2023/12/12 12:38:32;;;;;;;15.80;5.00;;;10.80;82.30;;;;;;4893350;29;20524;-75
2023/12/12 12:41:01;;;;;;;17.43;4.97;;;10.80;82.40;;;;;;4890023;29;20470;-75
2023/12/12 12:43:28;;;;;;;60.37;29.17;;;10.80;82.50;;;;;;4890484;29;21038;-76
2023/12/12 12:45:58;;;;;;;23.77;9.50;;;10.80;82.40;;;;;;4886911;29;20461;-75